Fresno Yosemite International Airport Fresno US
ICAO: KFAT
IATA: FAT
Category: Medium
Scheduled Services: Yes

Elevation: 336 ft
TransAlt. 18000 ft.

Airport Communications:
APP/DEP:35.195
APP/DEP:118.5
ATIS:121.35
CLNC DEL:124.35
GND:121.7
ANG OPS:138.15
ARNG OPS:40.95
RANCHO RDO:122.2
TWR:118.2
UNICOM:122.95

KFAT Zoom In..

If you have problems with the map follow the link
https://www.worldairports.se/pages/airport.php?
ICAO=KFAT

Runways:

(A) RW 11L length 9539 ft width 150 ft
LOC 111.30 / hdg 111

(B) RW 11R length 8008 ft width 150 ft
LOC 111.30 / hdg 111

(C) RW 29L length 8008 ft width 150 ft
LOC 111.30 / hdg 291

(D) RW 29R length 9539 ft width 150 ft
ILS 111.30 / hdg 291

Location; KFAT
Day. 23 / Time. 23.53 Zulu
* Altimeter: 30.15
* Temperature: 17° c. 62.6°f.
* Wind from: VRB° Speed 04 kn.
Dewpoint: 09° c.
Visibility: 10 Statute Miles.
Clouds: Scattered 2000 ft.
Clouds: Scattered 25000 ft.
Conditions: Haze.

KFAT 232353Z VRB04KT 10SM SCT200 SCT250 17/09 A3015 RMK AO2 SLP207 HZ DSNT ALQDS T01720089 10178 20083 56018


Wind From VRB°
Speed 04 kn.

 
 
jpsmedia worldairports.se 2020   terms of use